Time;durP1;ratioP1;P1;durP2;ratioP2;P2;SDS_P1;SDS_P2;PMS_P1;PMS_P2;Temp;Humidity;BMP_temperature;BMP_pressure;BME280_temperature;BME280_humidity;BME280_pressure;Samples;Min_cycle;Max_cycle;Signal;HPM_P1;HPM_P2
2023/06/12 00:00:13;;;;;;;8.95;3.08;;;17.00;74.20;;;;;;5023056;28;20085;-48
2023/06/12 00:02:40;;;;;;;10.35;3.67;;;17.00;74.40;;;;;;5036030;28;20466;-49
2023/06/12 00:05:08;;;;;;;5.53;3.35;;;17.00;74.80;;;;;;5022284;28;20024;-47
2023/06/12 00:07:35;;;;;;;12.13;3.60;;;16.90;74.70;;;;;;5027813;28;20033;-47
2023/06/12 00:10:01;;;;;;;9.65;3.85;;;16.90;74.70;;;;;;5029529;28;20026;-46
2023/06/12 00:12:28;;;;;;;7.57;4.13;;;16.90;75.20;;;;;;5024839;28;20038;-46
2023/06/12 00:14:55;;;;;;;5.88;2.75;;;16.90;75.20;;;;;;5016816;28;20344;-47
2023/06/12 00:17:22;;;;;;;6.70;3.47;;;16.80;75.20;;;;;;5021676;28;20038;-46
2023/06/12 00:19:51;;;;;;;8.30;3.55;;;16.80;75.40;;;;;;5037796;28;20045;-46
2023/06/12 00:22:18;;;;;;;7.80;3.47;;;16.80;75.50;;;;;;5035763;28;20022;-45
2023/06/12 00:24:44;;;;;;;9.02;4.20;;;16.70;75.50;;;;;;5023442;28;20058;-46
2023/06/12 00:27:11;;;;;;;10.15;4.43;;;16.70;75.40;;;;;;5013130;28;20026;-46
2023/06/12 00:29:38;;;;;;;8.68;4.05;;;16.70;75.60;;;;;;5012800;28;20352;-49
2023/06/12 00:32:04;;;;;;;6.05;3.55;;;16.60;75.50;;;;;;5017012;28;20109;-47
2023/06/12 00:34:30;;;;;;;7.80;3.22;;;16.50;75.80;;;;;;5013260;28;20037;-47
2023/06/12 00:36:57;;;;;;;13.60;3.30;;;16.50;75.90;;;;;;5012749;28;20026;-47
2023/06/12 00:39:23;;;;;;;9.18;3.72;;;16.50;76.00;;;;;;5034368;28;20112;-46
2023/06/12 00:41:50;;;;;;;9.38;4.28;;;16.50;76.20;;;;;;5033071;28;20025;-47
2023/06/12 00:44:17;;;;;;;12.32;4.25;;;16.50;76.10;;;;;;5011797;28;20064;-51
2023/06/12 00:46:43;;;;;;;8.10;3.17;;;16.40;76.20;;;;;;5042694;28;20381;-48
2023/06/12 00:49:14;;;;;;;8.93;3.92;;;16.40;76.20;;;;;;5045680;28;20108;-47
2023/06/12 00:51:42;;;;;;;8.18;4.53;;;16.40;76.40;;;;;;5017903;28;20022;-47
2023/06/12 00:54:09;;;;;;;7.00;3.67;;;16.40;76.60;;;;;;5023825;28;20021;-48
2023/06/12 00:56:36;;;;;;;5.78;3.28;;;16.30;77.10;;;;;;5037429;28;20112;-46
2023/06/12 00:59:05;;;;;;;9.00;2.95;;;16.30;76.90;;;;;;5030889;28;20499;-47
2023/06/12 01:01:33;;;;;;;7.82;4.20;;;16.20;77.00;;;;;;5032082;28;20037;-47
2023/06/12 01:03:58;;;;;;;8.98;3.72;;;16.20;76.90;;;;;;5041414;28;20083;-46
2023/06/12 01:07:03;;;;;;;6.70;3.65;;;16.20;77.30;;;;;;5029420;28;20406;-46
2023/06/12 01:10:14;;;;;;;7.15;3.67;;;16.10;77.50;;;;;;5029613;28;20041;-46
2023/06/12 01:12:43;;;;;;;6.05;3.90;;;16.10;78.00;;;;;;5049026;28;20072;-45
2023/06/12 01:15:10;;;;;;;6.72;3.97;;;16.10;78.10;;;;;;5034969;28;20098;-46
2023/06/12 01:17:40;;;;;;;7.47;3.75;;;16.10;78.30;;;;;;5052968;28;20025;-46
2023/06/12 01:20:15;;;;;;;7.20;3.55;;;16.10;78.40;;;;;;5036457;28;20423;-46
2023/06/12 01:22:49;;;;;;;9.07;3.65;;;16.10;78.40;;;;;;5042608;28;20367;-46
2023/06/12 01:25:35;;;;;;;6.82;3.90;;;16.10;78.60;;;;;;5038705;28;20017;-48
2023/06/12 01:28:21;;;;;;;7.93;4.45;;;16.10;78.70;;;;;;5054888;28;20119;-48
2023/06/12 01:31:14;;;;;;;7.00;3.42;;;16.00;79.00;;;;;;5047422;28;20036;-46
2023/06/12 01:34:01;;;;;;;8.73;3.45;;;15.90;79.30;;;;;;5042053;28;20144;-47
2023/06/12 01:36:30;;;;;;;7.78;3.40;;;15.90;79.20;;;;;;5039409;28;20053;-46
2023/06/12 01:38:59;;;;;;;8.30;4.23;;;15.90;79.40;;;;;;5065980;28;20040;-46
2023/06/12 01:41:31;;;;;;;10.57;3.50;;;15.90;79.40;;;;;;5049927;28;20283;-48
2023/06/12 01:44:06;;;;;;;11.32;4.28;;;15.90;79.30;;;;;;5049813;28;20065;-46
2023/06/12 01:46:35;;;;;;;11.68;3.83;;;15.90;79.40;;;;;;5055774;28;20024;-49
2023/06/12 01:49:04;;;;;;;9.05;3.65;;;15.80;79.50;;;;;;5039552;28;20072;-47
2023/06/12 01:51:31;;;;;;;7.00;3.75;;;15.80;79.70;;;;;;5029440;28;20030;-47
2023/06/12 01:53:58;;;;;;;8.60;3.50;;;15.80;79.80;;;;;;5029931;28;20363;-49
2023/06/12 01:56:27;;;;;;;6.07;4.25;;;15.70;80.20;;;;;;5028809;28;20108;-47
2023/06/12 01:58:56;;;;;;;10.32;5.15;;;15.70;80.20;;;;;;5023916;28;20050;-46
2023/06/12 02:01:29;;;;;;;;;;;15.70;80.30;;;;;;5019333;28;20452;-46
2023/06/12 02:03:57;;;;;;;6.25;3.85;;;15.70;80.60;;;;;;5031967;28;19913;-46
2023/06/12 02:06:23;;;;;;;8.85;3.92;;;15.60;80.50;;;;;;5029093;28;20022;-46
2023/06/12 02:08:52;;;;;;;9.65;4.65;;;15.60;80.80;;;;;;5030883;28;20022;-45
2023/06/12 02:11:19;;;;;;;8.52;4.13;;;15.60;80.80;;;;;;5029564;28;20042;-47
2023/06/12 02:13:47;;;;;;;8.10;4.13;;;15.60;80.90;;;;;;5053359;28;20054;-48
2023/06/12 02:16:16;;;;;;;10.30;4.45;;;15.60;80.90;;;;;;5037038;28;20374;-46
2023/06/12 02:18:43;;;;;;;7.18;3.88;;;15.50;80.80;;;;;;5033586;28;20032;-48
2023/06/12 02:21:10;;;;;;;7.70;4.00;;;15.60;80.80;;;;;;5027328;28;20405;-47
2023/06/12 02:23:36;;;;;;;6.28;3.45;;;15.50;81.00;;;;;;5036718;28;20336;-46
2023/06/12 02:26:03;;;;;;;8.88;4.00;;;15.50;81.20;;;;;;5024362;28;20029;-45
2023/06/12 02:28:30;;;;;;;9.60;4.05;;;15.40;81.40;;;;;;5031054;28;20076;-48
2023/06/12 02:30:57;;;;;;;5.25;3.60;;;15.40;81.40;;;;;;5032331;28;20103;-47
2023/06/12 02:33:25;;;;;;;11.13;4.03;;;15.40;81.40;;;;;;5038503;28;20404;-46
2023/06/12 02:35:51;;;;;;;9.15;4.18;;;15.40;81.20;;;;;;5034597;28;20037;-50
2023/06/12 02:38:20;;;;;;;6.07;3.33;;;15.40;81.50;;;;;;5030893;28;20515;-48
2023/06/12 02:40:48;;;;;;;7.53;4.03;;;15.30;81.50;;;;;;5027651;28;20029;-47
2023/06/12 02:43:17;;;;;;;5.10;3.30;;;15.30;81.70;;;;;;5037692;28;20739;-46
2023/06/12 02:45:43;;;;;;;6.35;3.55;;;15.30;81.60;;;;;;5029481;28;20363;-46
2023/06/12 02:48:12;;;;;;;7.25;4.03;;;15.20;81.80;;;;;;5027747;28;20021;-49
2023/06/12 02:50:39;;;;;;;9.55;5.30;;;15.20;82.10;;;;;;5027971;28;20021;-48
2023/06/12 02:53:06;;;;;;;9.63;4.25;;;15.20;82.20;;;;;;5029969;28;20038;-48
2023/06/12 02:55:39;;;;;;;10.73;4.10;;;15.20;82.40;;;;;;5028909;28;20017;-46
2023/06/12 02:58:06;;;;;;;9.10;3.97;;;15.10;82.50;;;;;;5027121;28;20086;-45
2023/06/12 03:00:33;;;;;;;9.95;5.13;;;15.10;82.80;;;;;;5027376;28;20021;-46
2023/06/12 03:03:00;;;;;;;10.93;3.72;;;15.10;82.90;;;;;;5023797;28;20072;-46
2023/06/12 03:05:27;;;;;;;9.02;3.85;;;15.10;82.70;;;;;;5024141;28;20030;-46
2023/06/12 03:07:54;;;;;;;8.80;4.25;;;15.10;82.90;;;;;;5025871;28;20585;-45
2023/06/12 03:10:21;;;;;;;6.82;4.50;;;15.10;83.00;;;;;;5029451;28;20025;-46
2023/06/12 03:12:50;;;;;;;6.07;3.88;;;15.00;83.30;;;;;;5030023;28;20037;-46
2023/06/12 03:15:16;;;;;;;8.85;4.55;;;15.00;83.30;;;;;;5027002;28;20029;-48
2023/06/12 03:17:43;;;;;;;8.80;3.83;;;15.00;83.30;;;;;;5013774;28;20029;-48
2023/06/12 03:20:15;;;;;;;10.60;4.47;;;15.10;83.20;;;;;;5016610;28;20025;-45
2023/06/12 03:22:42;;;;;;;8.65;4.10;;;15.00;83.40;;;;;;5029949;28;20091;-49
2023/06/12 03:25:15;;;;;;;12.63;4.65;;;15.00;83.50;;;;;;5017029;28;20417;-46
2023/06/12 03:27:44;;;;;;;8.55;4.55;;;15.00;83.50;;;;;;5016876;28;20017;-45
2023/06/12 03:30:13;;;;;;;7.43;4.07;;;15.00;83.50;;;;;;5025221;28;20040;-46
2023/06/12 03:32:40;;;;;;;8.23;4.47;;;15.10;83.50;;;;;;5028400;28;20037;-46
2023/06/12 03:35:07;;;;;;;6.97;4.35;;;15.10;83.50;;;;;;5016763;28;20029;-46
2023/06/12 03:37:34;;;;;;;7.28;3.80;;;15.10;83.40;;;;;;5022401;28;20033;-51
2023/06/12 03:40:03;;;;;;;10.15;4.65;;;15.00;83.30;;;;;;5023937;28;20381;-48
2023/06/12 03:42:29;;;;;;;10.48;4.70;;;15.10;83.30;;;;;;5030271;28;20037;-50
2023/06/12 03:44:58;;;;;;;15.65;4.97;;;15.10;83.20;;;;;;5022917;28;20056;-45
2023/06/12 03:47:25;;;;;;;11.00;3.95;;;15.10;83.10;;;;;;5030466;28;20025;-45
2023/06/12 03:49:55;;;;;;;7.93;3.90;;;15.10;83.20;;;;;;5023562;28;20025;-52
2023/06/12 03:52:22;;;;;;;11.05;4.80;;;15.20;83.00;;;;;;5028220;28;20036;-49
2023/06/12 03:54:49;;;;;;;10.25;4.78;;;15.20;83.00;;;;;;5031193;28;20092;-46
2023/06/12 03:57:16;;;;;;;8.98;4.50;;;15.20;82.80;;;;;;5030566;28;20038;-46
2023/06/12 03:59:43;;;;;;;8.27;4.07;;;15.30;82.90;;;;;;5026872;28;20436;-49
2023/06/12 04:02:10;;;;;;;8.75;4.38;;;15.30;82.80;;;;;;5035995;28;20032;-47
2023/06/12 04:04:37;;;;;;;9.20;3.97;;;15.30;83.00;;;;;;5041873;28;20102;-46
2023/06/12 04:07:04;;;;;;;7.13;4.75;;;15.40;83.00;;;;;;5030542;28;20083;-46
2023/06/12 04:09:30;;;;;;;6.70;3.65;;;15.40;82.80;;;;;;5031097;28;20044;-46
2023/06/12 04:11:57;;;;;;;7.47;4.15;;;15.40;82.60;;;;;;5029490;28;20550;-47
2023/06/12 04:14:24;;;;;;;11.15;4.68;;;15.40;82.80;;;;;;5030573;28;20459;-50
2023/06/12 04:16:51;;;;;;;6.32;3.60;;;15.40;82.70;;;;;;5029425;28;20033;-45
2023/06/12 04:19:18;;;;;;;8.73;4.85;;;15.40;82.60;;;;;;5030390;28;20029;-46
2023/06/12 04:21:45;;;;;;;8.30;3.83;;;15.40;82.60;;;;;;5034553;28;20033;-45
2023/06/12 04:24:19;;;;;;;10.35;5.43;;;15.50;82.70;;;;;;5032066;28;20069;-46
2023/06/12 04:26:46;;;;;;;12.35;5.05;;;15.50;82.50;;;;;;5030044;28;20018;-46
2023/06/12 04:29:14;;;;;;;9.38;4.72;;;15.60;82.30;;;;;;5032074;28;20507;-47
2023/06/12 04:31:42;;;;;;;8.45;4.63;;;15.70;82.20;;;;;;5029755;28;20029;-48
2023/06/12 04:34:09;;;;;;;9.63;4.57;;;15.80;82.20;;;;;;5029719;28;20021;-45
2023/06/12 04:36:37;;;;;;;7.82;4.25;;;15.90;81.70;;;;;;5026493;28;20040;-50
2023/06/12 04:39:05;;;;;;;6.50;4.57;;;16.00;81.60;;;;;;5031446;28;20017;-45
2023/06/12 04:41:33;;;;;;;9.77;4.70;;;16.20;80.80;;;;;;5031946;28;20064;-46
2023/06/12 04:43:59;;;;;;;9.60;3.78;;;16.30;80.40;;;;;;5034748;28;20044;-48
2023/06/12 04:46:28;;;;;;;7.57;3.90;;;16.40;80.20;;;;;;5035397;28;20026;-46
2023/06/12 04:48:55;;;;;;;12.38;3.47;;;16.50;80.00;;;;;;5033536;28;20055;-47
2023/06/12 04:51:25;;;;;;;7.10;3.95;;;16.50;80.00;;;;;;5035761;28;20053;-46
2023/06/12 04:53:53;;;;;;;10.35;4.63;;;16.50;79.80;;;;;;5027206;28;20029;-46
2023/06/12 04:56:21;;;;;;;17.25;5.22;;;16.50;80.00;;;;;;5035367;28;20034;-48
2023/06/12 04:58:51;;;;;;;7.25;3.90;;;16.50;79.70;;;;;;5028895;28;20022;-45
2023/06/12 05:01:21;;;;;;;10.18;4.30;;;16.50;79.90;;;;;;5019727;28;20034;-46
2023/06/12 05:03:54;;;;;;;10.98;3.95;;;16.60;79.80;;;;;;5023475;28;20029;-46
2023/06/12 05:06:21;;;;;;;6.75;3.30;;;16.60;80.00;;;;;;5031227;28;20026;-46
2023/06/12 05:08:49;;;;;;;10.07;4.68;;;16.60;79.30;;;;;;5034415;28;20021;-47
2023/06/12 05:11:16;;;;;;;8.10;4.13;;;16.60;79.30;;;;;;5028997;28;20038;-45
2023/06/12 05:13:44;;;;;;;10.10;4.32;;;16.60;79.60;;;;;;5050333;28;20024;-45
2023/06/12 05:16:11;;;;;;;9.23;4.20;;;16.60;79.60;;;;;;5024206;28;20468;-48
2023/06/12 05:18:38;;;;;;;16.25;5.60;;;16.60;79.20;;;;;;5030398;28;20402;-47
2023/06/12 05:21:06;;;;;;;9.30;4.10;;;16.60;79.40;;;;;;5030885;28;20074;-46
2023/06/12 05:23:33;;;;;;;7.97;4.53;;;16.60;79.70;;;;;;5034986;28;20025;-46
2023/06/12 05:26:00;;;;;;;11.23;4.68;;;16.70;79.40;;;;;;5041078;28;20362;-46
2023/06/12 05:28:26;;;;;;;8.90;4.60;;;16.70;79.40;;;;;;5030536;28;20117;-46
2023/06/12 05:30:58;;;;;;;7.35;4.25;;;16.70;78.90;;;;;;5025127;28;20495;-46
2023/06/12 05:33:25;;;;;;;6.57;4.40;;;16.80;79.20;;;;;;5037417;28;20033;-47
2023/06/12 05:35:52;;;;;;;15.30;4.80;;;16.80;79.50;;;;;;5044063;28;20358;-46
2023/06/12 05:38:18;;;;;;;9.90;4.50;;;16.90;78.70;;;;;;5033552;28;20108;-46
2023/06/12 05:40:47;;;;;;;11.13;4.65;;;16.90;78.70;;;;;;5035389;28;20030;-46
2023/06/12 05:43:13;;;;;;;12.77;5.30;;;16.90;79.00;;;;;;5034369;28;20037;-46
2023/06/12 05:45:39;;;;;;;7.35;3.97;;;16.90;78.60;;;;;;5024169;28;20069;-47
2023/06/12 05:48:05;;;;;;;9.18;4.03;;;17.00;78.60;;;;;;5048709;28;20037;-48
2023/06/12 05:50:32;;;;;;;13.57;4.40;;;17.10;78.10;;;;;;5037806;28;20045;-47
2023/06/12 05:52:59;;;;;;;6.53;3.83;;;17.40;77.90;;;;;;5021604;28;20105;-50
2023/06/12 05:55:26;;;;;;;8.68;4.15;;;17.70;77.00;;;;;;5029068;28;20036;-48
2023/06/12 05:57:52;;;;;;;6.93;3.70;;;18.20;75.20;;;;;;5027291;28;20059;-49
2023/06/12 06:00:21;;;;;;;11.30;3.85;;;18.60;75.00;;;;;;5030561;28;20022;-46
2023/06/12 06:02:48;;;;;;;17.45;4.30;;;18.90;73.10;;;;;;5026418;28;20033;-46
2023/06/12 06:05:16;;;;;;;8.75;4.22;;;19.30;71.30;;;;;;5028148;28;20048;-47
2023/06/12 06:07:43;;;;;;;8.45;3.88;;;19.60;70.60;;;;;;5008819;28;20036;-48
2023/06/12 06:10:10;;;;;;;7.70;3.92;;;19.60;70.10;;;;;;5023189;28;20025;-47
2023/06/12 06:12:38;;;;;;;7.68;4.38;;;19.80;69.50;;;;;;5019846;28;20397;-47
2023/06/12 06:15:05;;;;;;;7.28;4.03;;;19.90;68.70;;;;;;5003284;28;20902;-47
2023/06/12 06:17:34;;;;;;;6.00;3.33;;;20.10;68.60;;;;;;5032759;28;20100;-53
2023/06/12 06:20:04;;;;;;;8.95;3.90;;;20.30;68.10;;;;;;5030428;28;20030;-47
2023/06/12 06:22:32;;;;;;;8.30;3.65;;;20.40;67.90;;;;;;5030753;28;20047;-47
2023/06/12 06:25:01;;;;;;;10.95;4.78;;;20.40;67.50;;;;;;5030418;28;20032;-53
2023/06/12 06:27:28;;;;;;;;;;;20.30;67.30;;;;;;5030598;28;20550;-47
2023/06/12 06:29:55;;;;;;;7.25;3.65;;;20.40;67.50;;;;;;5031449;28;19928;-51
2023/06/12 06:32:21;;;;;;;9.05;4.85;;;20.10;68.00;;;;;;5025576;28;20088;-46
2023/06/12 06:34:49;;;;;;;8.20;4.50;;;20.10;68.10;;;;;;5028355;28;20124;-46
2023/06/12 06:37:16;;;;;;;6.50;3.63;;;20.10;67.80;;;;;;5030422;28;20040;-47
2023/06/12 06:39:43;;;;;;;9.07;4.65;;;20.00;68.90;;;;;;5028373;28;20418;-46
2023/06/12 06:42:10;;;;;;;7.88;4.45;;;20.00;69.00;;;;;;5030383;28;20117;-48
2023/06/12 06:44:37;;;;;;;8.18;4.75;;;19.90;68.50;;;;;;5027166;28;20404;-51
2023/06/12 06:47:03;;;;;;;9.65;5.95;;;19.80;68.80;;;;;;5026369;28;20553;-48
2023/06/12 06:49:30;;;;;;;12.35;4.97;;;19.80;69.00;;;;;;5030822;28;20045;-46
2023/06/12 06:51:57;;;;;;;11.65;5.10;;;19.70;68.70;;;;;;5030026;28;20121;-48
2023/06/12 06:54:24;;;;;;;8.20;4.38;;;19.60;69.00;;;;;;5028231;28;20061;-46
2023/06/12 06:56:51;;;;;;;6.70;4.88;;;19.70;69.60;;;;;;5027823;28;20029;-47
2023/06/12 06:59:18;;;;;;;6.03;3.80;;;19.70;68.90;;;;;;5029183;28;20029;-49
2023/06/12 07:01:45;;;;;;;10.05;4.70;;;19.60;69.20;;;;;;5026635;28;20030;-47
2023/06/12 07:04:11;;;;;;;8.93;4.68;;;19.90;69.40;;;;;;5027436;28;20350;-48
2023/06/12 07:06:40;;;;;;;8.75;5.22;;;20.10;68.50;;;;;;5027784;28;20029;-50
2023/06/12 07:09:08;;;;;;;5.55;3.95;;;20.20;68.00;;;;;;5029529;28;20037;-47
2023/06/12 07:11:34;;;;;;;8.93;4.45;;;20.20;67.60;;;;;;5025334;28;20045;-51
2023/06/12 07:14:05;;;;;;;10.52;5.32;;;20.20;67.70;;;;;;5028264;28;20106;-48
2023/06/12 07:16:32;;;;;;;9.77;5.10;;;20.30;67.00;;;;;;5025020;28;20029;-48
2023/06/12 07:18:57;;;;;;;7.15;5.20;;;20.40;67.40;;;;;;5030109;28;20025;-46
2023/06/12 07:21:26;;;;;;;11.25;6.47;;;20.80;65.10;;;;;;5027440;28;20044;-52
2023/06/12 07:23:52;;;;;;;9.02;4.78;;;20.90;64.80;;;;;;5030046;28;20064;-47
2023/06/12 07:26:21;;;;;;;10.57;4.78;;;21.40;63.30;;;;;;5024397;28;20032;-50
2023/06/12 07:28:48;;;;;;;8.57;4.43;;;21.90;63.90;;;;;;5026128;28;20112;-49
2023/06/12 07:31:14;;;;;;;10.82;5.00;;;22.40;62.30;;;;;;5028574;28;20029;-49
2023/06/12 07:33:41;;;;;;;8.35;4.70;;;22.70;62.00;;;;;;5028146;28;20029;-52
2023/06/12 07:36:07;;;;;;;9.88;3.88;;;22.90;60.30;;;;;;5032083;28;20435;-47
2023/06/12 07:38:39;;;;;;;9.82;5.35;;;23.40;60.00;;;;;;5031151;28;20028;-50
2023/06/12 07:41:05;;;;;;;7.88;4.38;;;23.60;58.80;;;;;;5030770;28;20140;-47
2023/06/12 07:43:34;;;;;;;8.60;5.22;;;23.70;58.50;;;;;;5030868;28;20413;-49
2023/06/12 07:46:04;;;;;;;10.05;5.00;;;24.00;56.30;;;;;;5024124;28;20099;-50
2023/06/12 07:48:31;;;;;;;7.28;4.82;;;24.10;57.10;;;;;;5026467;28;20057;-48
2023/06/12 07:50:57;;;;;;;9.68;5.43;;;24.30;56.50;;;;;;5026823;28;20099;-50
2023/06/12 07:53:24;;;;;;;8.85;4.90;;;24.40;56.40;;;;;;5025516;28;20055;-52
2023/06/12 07:55:51;;;;;;;9.10;5.13;;;24.80;55.60;;;;;;5026072;28;20406;-47
2023/06/12 07:58:22;;;;;;;11.55;5.82;;;24.90;56.50;;;;;;5025052;28;20939;-49
2023/06/12 08:00:54;;;;;;;8.88;5.22;;;25.30;55.00;;;;;;5028859;28;20112;-49
2023/06/12 08:03:24;;;;;;;8.15;5.13;;;25.60;54.20;;;;;;5024992;28;20036;-50
2023/06/12 08:05:52;;;;;;;12.48;6.00;;;25.80;53.30;;;;;;5026257;28;20067;-47
2023/06/12 08:08:20;;;;;;;9.65;5.22;;;26.20;51.60;;;;;;5022968;28;20034;-48
2023/06/12 08:10:49;;;;;;;8.98;4.97;;;25.80;53.40;;;;;;5030476;28;20037;-49
2023/06/12 08:13:16;;;;;;;9.43;6.53;;;26.10;52.50;;;;;;5030360;28;20051;-48
2023/06/12 08:15:41;;;;;;;12.38;6.20;;;26.10;50.90;;;;;;5037587;28;20479;-50
2023/06/12 08:18:10;;;;;;;10.75;5.90;;;26.40;52.10;;;;;;5032339;28;20075;-48
2023/06/12 08:20:37;;;;;;;7.65;4.88;;;26.30;51.50;;;;;;5027810;28;20104;-52
2023/06/12 08:23:04;;;;;;;8.35;5.78;;;26.70;50.80;;;;;;5032107;28;20037;-48
2023/06/12 08:25:32;;;;;;;6.80;5.47;;;26.80;50.90;;;;;;5030282;28;20025;-48
2023/06/12 08:27:59;;;;;;;9.52;6.53;;;26.80;52.30;;;;;;5028791;28;20029;-51
2023/06/12 08:30:27;;;;;;;9.05;5.53;;;26.90;49.60;;;;;;5029707;28;20866;-50
2023/06/12 08:32:53;;;;;;;11.02;5.47;;;27.30;49.90;;;;;;5034585;28;20049;-48
2023/06/12 08:35:19;;;;;;;7.13;5.43;;;27.30;49.80;;;;;;5029695;28;20056;-49
2023/06/12 08:37:47;;;;;;;10.15;6.82;;;27.40;48.60;;;;;;5028284;28;20382;-51
2023/06/12 08:40:15;;;;;;;10.90;5.70;;;27.40;49.30;;;;;;5030968;28;20033;-49
2023/06/12 08:42:47;;;;;;;7.95;5.45;;;27.40;49.30;;;;;;5029210;28;20033;-48
2023/06/12 08:45:17;;;;;;;8.52;5.75;;;27.60;49.30;;;;;;5028000;28;20048;-52
2023/06/12 08:47:48;;;;;;;7.82;6.80;;;27.40;49.60;;;;;;5030140;28;20109;-49
2023/06/12 08:50:23;;;;;;;8.30;5.78;;;27.10;48.80;;;;;;5028654;28;20034;-49
2023/06/12 08:52:51;;;;;;;6.95;5.22;;;27.10;50.20;;;;;;5030176;28;20450;-52
2023/06/12 08:55:20;;;;;;;13.40;6.13;;;27.50;50.80;;;;;;5024296;28;20060;-52
2023/06/12 08:57:47;;;;;;;11.43;7.87;;;27.50;50.60;;;;;;5027069;28;20066;-52
2023/06/12 09:00:17;;;;;;;9.00;6.68;;;27.50;49.30;;;;;;5027802;28;20284;-49
2023/06/12 09:02:51;;;;;;;9.98;7.55;;;27.50;48.20;;;;;;5031670;28;20029;-49
2023/06/12 09:05:23;;;;;;;9.25;6.03;;;27.30;49.30;;;;;;5025769;28;20025;-48
2023/06/12 09:07:50;;;;;;;8.63;7.32;;;27.20;49.50;;;;;;5031728;28;20026;-47
2023/06/12 09:10:16;;;;;;;13.30;8.32;;;27.30;47.70;;;;;;5028441;28;20034;-48
2023/06/12 09:12:46;;;;;;;7.93;6.78;;;27.10;48.90;;;;;;5031854;28;20446;-48
2023/06/12 09:15:18;;;;;;;8.18;6.85;;;27.00;50.00;;;;;;5029790;28;20049;-50
2023/06/12 09:17:48;;;;;;;11.00;7.35;;;26.90;50.70;;;;;;5028375;28;20075;-48
2023/06/12 09:20:33;;;;;;;11.43;6.90;;;27.20;48.60;;;;;;5029628;28;20075;-48
2023/06/12 09:23:06;;;;;;;7.85;6.43;;;27.10;48.60;;;;;;5029821;28;20109;-48
2023/06/12 09:25:41;;;;;;;8.90;7.00;;;27.40;50.40;;;;;;5028994;28;20084;-48
2023/06/12 09:28:09;;;;;;;10.23;6.95;;;27.30;51.90;;;;;;5029750;28;20026;-53
2023/06/12 09:30:42;;;;;;;8.65;7.40;;;27.40;51.10;;;;;;5027736;28;20471;-47
2023/06/12 09:33:09;;;;;;;10.73;7.18;;;27.40;49.70;;;;;;5027452;28;20033;-50
2023/06/12 09:35:59;;;;;;;8.95;7.13;;;27.20;49.80;;;;;;5026865;28;20029;-51
2023/06/12 09:38:34;;;;;;;11.75;8.15;;;27.20;49.40;;;;;;5029760;28;20087;-48
2023/06/12 09:41:03;;;;;;;9.35;6.88;;;27.50;51.00;;;;;;5030601;28;20067;-48
2023/06/12 09:43:30;;;;;;;12.68;7.55;;;27.50;49.40;;;;;;5028214;28;20451;-48
2023/06/12 09:46:01;;;;;;;8.50;7.25;;;27.50;49.80;;;;;;5031845;28;20104;-48
2023/06/12 09:48:38;;;;;;;9.95;8.30;;;27.50;49.80;;;;;;5026499;28;20037;-48
2023/06/12 09:51:09;;;;;;;11.40;7.45;;;27.80;49.30;;;;;;5027012;28;20021;-54
2023/06/12 09:53:37;;;;;;;9.45;7.78;;;27.70;49.40;;;;;;5028017;28;20469;-50
2023/06/12 09:56:08;;;;;;;7.45;6.75;;;27.90;47.70;;;;;;5025242;28;20064;-49
2023/06/12 09:58:36;;;;;;;9.00;6.70;;;28.00;47.60;;;;;;5024124;28;20038;-49
2023/06/12 10:01:08;;;;;;;10.02;7.22;;;28.10;48.70;;;;;;5025327;28;20695;-51
2023/06/12 10:03:58;;;;;;;9.32;7.47;;;28.30;49.50;;;;;;5026620;28;20458;-48
2023/06/12 10:06:27;;;;;;;7.43;6.10;;;28.40;47.70;;;;;;5024019;28;20543;-55
2023/06/12 10:08:56;;;;;;;10.50;6.68;;;28.60;49.90;;;;;;5023872;28;20030;-48
2023/06/12 10:11:25;;;;;;;10.68;6.32;;;28.70;52.30;;;;;;5025309;28;20104;-48
2023/06/12 10:13:51;;;;;;;11.43;7.25;;;28.90;50.10;;;;;;5022348;28;20071;-49
2023/06/12 10:16:18;;;;;;;10.05;6.70;;;29.00;53.10;;;;;;5037751;28;20164;-49
2023/06/12 10:18:45;;;;;;;11.98;7.18;;;29.10;51.40;;;;;;5025741;28;20066;-53
2023/06/12 10:21:12;;;;;;;8.88;7.15;;;28.90;50.60;;;;;;5023577;28;20364;-48
2023/06/12 10:23:42;;;;;;;9.82;6.72;;;29.00;51.30;;;;;;5026497;28;20029;-51
2023/06/12 10:26:13;;;;;;;10.60;6.82;;;28.80;50.60;;;;;;5021629;28;20347;-48
2023/06/12 10:28:41;;;;;;;10.65;7.22;;;28.80;52.50;;;;;;5023537;28;20058;-52
2023/06/12 10:31:17;;;;;;;11.02;6.47;;;28.70;52.40;;;;;;5025567;28;20370;-52
2023/06/12 10:34:01;;;;;;;10.05;7.00;;;28.80;52.50;;;;;;5025252;28;20115;-49
2023/06/12 10:36:47;;;;;;;13.98;7.32;;;28.90;51.90;;;;;;5030201;28;20037;-53
2023/06/12 10:39:25;;;;;;;12.68;8.02;;;28.90;48.90;;;;;;5027672;28;20472;-50
2023/06/12 10:41:52;;;;;;;8.30;6.50;;;28.80;52.20;;;;;;5029894;28;20140;-49
2023/06/12 10:44:38;;;;;;;12.30;7.40;;;28.90;53.80;;;;;;5027472;28;20036;-55
2023/06/12 10:47:17;;;;;;;10.10;8.23;;;29.10;51.30;;;;;;5028429;28;20026;-51
2023/06/12 10:50:00;;;;;;;8.40;6.65;;;29.00;52.70;;;;;;5026988;28;20382;-52
2023/06/12 10:52:28;;;;;;;8.93;7.13;;;29.20;52.30;;;;;;5026291;28;20501;-55
2023/06/12 10:55:16;;;;;;;12.90;7.45;;;29.10;51.70;;;;;;5026673;28;20052;-48
2023/06/12 10:57:51;;;;;;;9.95;8.15;;;29.20;51.90;;;;;;5041110;28;20037;-53
2023/06/12 11:00:18;;;;;;;8.63;7.07;;;29.30;50.00;;;;;;5019881;28;20049;-56
2023/06/12 11:02:59;;;;;;;10.20;8.45;;;29.40;50.20;;;;;;5028359;28;20370;-49
2023/06/12 11:05:27;;;;;;;9.48;7.38;;;28.90;51.90;;;;;;5025780;28;20044;-48
2023/06/12 11:08:11;;;;;;;9.93;7.32;;;29.10;51.50;;;;;;5025967;28;20036;-51
2023/06/12 11:10:38;;;;;;;11.90;8.00;;;29.00;50.00;;;;;;5026518;28;20021;-49
2023/06/12 11:13:04;;;;;;;7.90;7.07;;;29.00;51.70;;;;;;5026723;28;20053;-51
2023/06/12 11:15:45;;;;;;;8.32;7.22;;;28.90;51.80;;;;;;5031691;28;20029;-51
2023/06/12 11:18:13;;;;;;;10.07;7.75;;;28.90;52.70;;;;;;5026271;28;20036;-50
2023/06/12 11:20:41;;;;;;;8.77;7.05;;;29.00;52.40;;;;;;5024290;28;20029;-52
2023/06/12 11:23:08;;;;;;;9.10;7.18;;;29.30;51.10;;;;;;5026311;28;20044;-50
2023/06/12 11:25:53;;;;;;;9.43;7.57;;;29.30;50.70;;;;;;5027341;28;20028;-50
2023/06/12 11:28:20;;;;;;;9.65;7.00;;;29.40;51.60;;;;;;5026756;28;20036;-49
2023/06/12 11:30:54;;;;;;;16.88;7.32;;;29.90;53.00;;;;;;5021121;28;20048;-48
2023/06/12 11:33:22;;;;;;;11.02;6.95;;;30.20;48.80;;;;;;5027191;28;20115;-48
2023/06/12 11:35:51;;;;;;;9.73;6.47;;;30.20;47.90;;;;;;5028262;28;20025;-50
2023/06/12 11:38:20;;;;;;;;;;;30.30;48.70;;;;;;5022751;28;20070;-54
2023/06/12 11:40:51;;;;;;;7.63;6.40;;;30.40;46.90;;;;;;5025497;28;19917;-48
2023/06/12 11:43:19;;;;;;;8.10;7.30;;;30.50;49.70;;;;;;5026159;28;20102;-48
2023/06/12 11:45:45;;;;;;;7.07;6.37;;;30.40;49.90;;;;;;5025508;28;20034;-49
2023/06/12 11:48:14;;;;;;;9.30;6.65;;;30.30;45.40;;;;;;5026309;28;20111;-48
2023/06/12 11:50:50;;;;;;;8.45;6.93;;;30.30;50.10;;;;;;5028006;28;20021;-48
2023/06/12 11:53:18;;;;;;;8.07;7.28;;;30.20;48.70;;;;;;5027308;28;20034;-50
2023/06/12 11:55:56;;;;;;;8.82;6.65;;;30.20;44.40;;;;;;5028355;28;20029;-50
2023/06/12 11:58:35;;;;;;;6.38;5.72;;;30.10;47.70;;;;;;5038636;28;20042;-50
2023/06/12 12:01:21;;;;;;;12.43;6.03;;;29.90;40.10;;;;;;5028456;28;20398;-52
2023/06/12 12:03:49;;;;;;;6.93;6.05;;;29.80;38.30;;;;;;5031737;28;20038;-52
2023/06/12 12:06:18;;;;;;;6.93;5.43;;;29.60;38.60;;;;;;5029334;28;20498;-52
2023/06/12 12:08:53;;;;;;;8.20;6.70;;;29.40;37.90;;;;;;5024759;28;20451;-48
2023/06/12 12:11:23;;;;;;;10.07;5.60;;;29.30;37.50;;;;;;5025442;28;20060;-49
2023/06/12 12:14:07;;;;;;;;;;;29.30;39.20;;;;;;5026782;28;20115;-51
2023/06/12 12:16:43;;;;;;;6.28;5.68;;;29.30;37.50;;;;;;5026318;28;19913;-48
2023/06/12 12:19:25;;;;;;;7.28;5.97;;;29.30;36.50;;;;;;5026240;28;20049;-53
2023/06/12 12:21:52;;;;;;;9.18;6.55;;;29.30;36.10;;;;;;5020632;28;20040;-52
2023/06/12 12:24:19;;;;;;;7.50;6.40;;;29.20;35.60;;;;;;5025406;28;20034;-50
2023/06/12 12:26:52;;;;;;;7.60;6.78;;;29.20;38.60;;;;;;5029132;28;20494;-48
2023/06/12 12:29:20;;;;;;;7.10;6.40;;;29.10;37.60;;;;;;5027188;28;20175;-48
2023/06/12 12:31:46;;;;;;;8.48;6.45;;;29.10;38.00;;;;;;5030833;28;20064;-50
2023/06/12 12:34:13;;;;;;;6.85;6.25;;;29.20;36.90;;;;;;5023537;28;20037;-48
2023/06/12 12:36:40;;;;;;;12.13;5.88;;;29.20;38.10;;;;;;5027428;28;20018;-48
2023/06/12 12:39:06;;;;;;;7.20;6.50;;;29.30;37.90;;;;;;5017546;28;20033;-51
2023/06/12 12:41:35;;;;;;;8.27;6.78;;;29.20;36.40;;;;;;5024233;28;20397;-53
2023/06/12 12:44:01;;;;;;;7.22;5.68;;;29.10;37.20;;;;;;5031150;28;20018;-49
2023/06/12 12:46:28;;;;;;;9.60;6.55;;;29.10;37.30;;;;;;5022528;28;20026;-55
2023/06/12 12:48:55;;;;;;;8.45;6.22;;;28.90;36.80;;;;;;5026946;28;20067;-50
2023/06/12 12:51:22;;;;;;;7.03;6.32;;;29.10;37.40;;;;;;5028558;28;20034;-49
2023/06/12 12:53:49;;;;;;;8.63;6.82;;;29.10;37.10;;;;;;5024524;28;20765;-49
2023/06/12 12:56:16;;;;;;;7.82;6.80;;;29.10;37.90;;;;;;5021872;28;20029;-48